Time;durP1;ratioP1;P1;durP2;ratioP2;P2;SDS_P1;SDS_P2;PMS_P1;PMS_P2;Temp;Humidity;BMP_temperature;BMP_pressure;BME280_temperature;BME280_humidity;BME280_pressure;Samples;Min_cycle;Max_cycle;Signal;HPM_P1;HPM_P2
2021/10/05 00:02:22;;;;;;;3.33;3.03;;;;;;;15.82;70.05;100857.72;4995257;28;20034;-43
2021/10/05 00:04:48;;;;;;;3.55;3.17;;;;;;;15.82;70.13;100849.75;4993745;28;20105;-42
2021/10/05 00:07:13;;;;;;;3.80;3.28;;;;;;;15.81;70.19;100856.88;4994145;28;20042;-42
2021/10/05 00:09:38;;;;;;;3.05;2.80;;;;;;;15.81;70.08;100859.53;4989653;28;20479;-43
2021/10/05 00:12:04;;;;;;;3.13;2.83;;;;;;;15.82;70.02;100863.03;4993539;28;20033;-42
2021/10/05 00:14:29;;;;;;;2.90;2.70;;;;;;;15.80;69.96;100864.91;4994970;28;20088;-41
2021/10/05 00:16:55;;;;;;;3.30;2.97;;;;;;;15.81;70.11;100858.66;4992342;28;20026;-49
2021/10/05 00:19:20;;;;;;;3.30;3.00;;;;;;;15.80;70.10;100860.44;4991688;28;20495;-42
2021/10/05 00:21:45;;;;;;;3.60;3.30;;;;;;;15.81;70.11;100863.97;4992117;28;20117;-41
2021/10/05 00:24:11;;;;;;;5.30;3.55;;;;;;;15.79;70.09;100850.72;4996403;28;20097;-42
2021/10/05 00:26:37;;;;;;;2.83;2.63;;;;;;;15.80;70.20;100835.63;4993480;28;20482;-45
2021/10/05 00:29:02;;;;;;;3.13;2.83;;;;;;;15.77;70.23;100834.78;4993322;28;20022;-44
2021/10/05 00:31:27;;;;;;;3.33;2.78;;;;;;;15.77;69.99;100836.56;4994090;28;20026;-41
2021/10/05 00:33:53;;;;;;;4.00;3.60;;;;;;;15.77;70.48;100821.50;5000042;28;20506;-43
2021/10/05 00:36:18;;;;;;;3.78;3.47;;;;;;;15.77;70.09;100820.63;4993227;28;20084;-42
2021/10/05 00:38:43;;;;;;;3.13;2.83;;;;;;;15.76;70.17;100824.19;4991819;28;20493;-43
2021/10/05 00:41:08;;;;;;;3.28;2.97;;;;;;;15.76;70.22;100824.19;4997302;28;20101;-41
2021/10/05 00:43:34;;;;;;;3.67;3.35;;;;;;;15.75;70.37;100819.81;4993295;28;20093;-41
2021/10/05 00:45:59;;;;;;;3.63;3.20;;;;;;;15.74;70.10;100813.59;4996081;28;20033;-41
2021/10/05 00:48:24;;;;;;;4.47;3.53;;;;;;;15.76;70.03;100808.25;4990966;28;20034;-42
2021/10/05 00:50:50;;;;;;;2.95;2.65;;;;;;;15.74;70.27;100815.41;4994534;28;20026;-43
2021/10/05 00:53:15;;;;;;;3.78;3.47;;;;;;;15.74;70.13;100810.94;4991540;28;20030;-43
2021/10/05 00:55:41;;;;;;;4.90;3.65;;;;;;;15.75;70.17;100811.84;4991931;28;20062;-42
2021/10/05 00:58:06;;;;;;;2.95;2.65;;;;;;;15.73;70.12;100809.22;4995517;28;20073;-43
2021/10/05 01:00:32;;;;;;;3.58;3.28;;;;;;;15.73;70.35;100801.22;4995318;28;20022;-43
2021/10/05 01:02:58;;;;;;;3.53;3.15;;;;;;;15.74;70.14;100800.31;4992676;28;20037;-42
2021/10/05 01:05:23;;;;;;;3.38;2.90;;;;;;;15.73;70.30;100805.66;4992620;28;20044;-41
2021/10/05 01:07:49;;;;;;;3.63;3.33;;;;;;;15.73;70.25;100798.56;4995177;28;20368;-43
2021/10/05 01:10:17;;;;;;;3.47;3.08;;;;;;;15.72;70.25;100794.19;4991580;28;20026;-42
2021/10/05 01:12:45;;;;;;;3.05;2.75;;;;;;;15.72;70.19;100796.84;4992202;28;20510;-43
2021/10/05 01:15:11;;;;;;;4.03;2.97;;;;;;;15.72;70.26;100785.31;4995775;28;20030;-42
2021/10/05 01:17:36;;;;;;;3.17;2.88;;;;;;;15.70;70.34;100782.72;4997363;28;20076;-42
2021/10/05 01:20:01;;;;;;;3.60;3.30;;;;;;;15.71;70.14;100773.81;4998253;28;20046;-41
2021/10/05 01:22:27;;;;;;;3.88;3.08;;;;;;;15.71;70.25;100778.28;4996503;28;20077;-43
2021/10/05 01:24:52;;;;;;;4.10;3.70;;;;;;;15.70;70.29;100771.22;4996925;28;20533;-41
2021/10/05 01:27:17;;;;;;;2.97;2.70;;;;;;;15.70;70.30;100760.59;4995308;28;20030;-42
2021/10/05 01:29:43;;;;;;;3.55;3.25;;;;;;;15.69;70.19;100758.81;4997865;28;20037;-44
2021/10/05 01:32:08;;;;;;;4.75;3.25;;;;;;;15.69;70.27;100753.50;4996677;28;20024;-42
2021/10/05 01:34:33;;;;;;;4.47;3.33;;;;;;;15.68;70.29;100742.00;4997569;28;20064;-42
2021/10/05 01:37:00;;;;;;;4.28;3.88;;;;;;;15.67;70.34;100737.59;4995474;28;20015;-41
2021/10/05 01:39:31;;;;;;;4.07;3.67;;;;;;;15.67;70.29;100734.94;4995688;28;20026;-42
2021/10/05 01:41:57;;;;;;;;;;;;;;;15.69;70.18;100735.78;4995577;28;20034;-44
2021/10/05 01:44:23;;;;;;;3.97;3.15;;;;;;;15.65;70.27;100727.00;4999457;28;19972;-42
2021/10/05 01:46:50;;;;;;;4.20;3.63;;;;;;;15.65;70.43;100737.63;4995792;28;20388;-44
2021/10/05 01:49:16;;;;;;;4.60;4.18;;;;;;;15.67;70.29;100744.72;4995744;28;20026;-42
2021/10/05 01:51:42;;;;;;;4.38;3.97;;;;;;;15.66;70.23;100743.84;4997140;28;20026;-44
2021/10/05 01:54:08;;;;;;;4.53;3.60;;;;;;;15.65;70.41;100732.31;5001544;28;20038;-41
2021/10/05 01:56:33;;;;;;;5.40;3.90;;;;;;;15.65;70.23;100723.50;4996584;28;20483;-41
2021/10/05 01:58:59;;;;;;;4.13;3.58;;;;;;;15.66;70.21;100722.56;4986124;28;20022;-42
2021/10/05 02:01:24;;;;;;;4.30;3.63;;;;;;;15.65;70.47;100712.84;4994396;28;20022;-42
2021/10/05 02:03:49;;;;;;;4.93;3.90;;;;;;;15.65;70.23;100723.50;4998663;28;20052;-42
2021/10/05 02:06:14;;;;;;;4.15;3.63;;;;;;;15.64;70.28;100717.28;4997139;28;20027;-43
2021/10/05 02:08:40;;;;;;;5.72;4.43;;;;;;;15.63;70.25;100718.22;4995563;28;20033;-41
2021/10/05 02:11:05;;;;;;;4.35;3.55;;;;;;;15.63;70.21;100702.25;4995910;28;20040;-42
2021/10/05 02:13:31;;;;;;;4.00;3.47;;;;;;;15.62;70.38;100691.69;4997404;28;20392;-42
2021/10/05 02:15:56;;;;;;;5.50;3.80;;;;;;;15.63;70.35;100688.09;4997018;28;20518;-42
2021/10/05 02:18:21;;;;;;;4.20;3.55;;;;;;;15.62;70.27;100689.91;4998374;28;20384;-42
2021/10/05 02:20:47;;;;;;;4.80;3.58;;;;;;;15.61;70.09;100679.31;4998264;28;20033;-41
2021/10/05 02:23:12;;;;;;;5.03;4.35;;;;;;;15.62;70.25;100681.03;4997902;28;20018;-42
2021/10/05 02:25:37;;;;;;;3.85;3.28;;;;;;;15.62;70.35;100681.03;4996925;28;20022;-42
2021/10/05 02:28:04;;;;;;;4.70;3.85;;;;;;;15.61;70.28;100676.66;4998153;28;20092;-42
2021/10/05 02:30:30;;;;;;;4.68;4.15;;;;;;;15.60;70.33;100674.88;4999261;28;20658;-43
2021/10/05 02:32:55;;;;;;;4.53;4.05;;;;;;;15.59;70.33;100666.06;4994667;28;20053;-45
2021/10/05 02:35:21;;;;;;;8.63;4.72;;;;;;;15.60;70.38;100659.81;4995247;28;20058;-41
2021/10/05 02:37:46;;;;;;;4.28;3.88;;;;;;;15.60;70.25;100658.94;5000348;28;20108;-44
2021/10/05 02:40:12;;;;;;;4.45;3.78;;;;;;;15.58;70.39;100656.34;4997092;28;20049;-42
2021/10/05 02:42:38;;;;;;;4.45;3.90;;;;;;;15.59;70.40;100659.88;4995508;28;20022;-42
2021/10/05 02:45:05;;;;;;;4.60;3.88;;;;;;;15.60;70.34;100658.94;4995015;28;20089;-44
2021/10/05 02:47:30;;;;;;;5.13;3.90;;;;;;;15.59;70.48;100655.44;4999451;28;20034;-42
2021/10/05 02:49:56;;;;;;;5.60;4.65;;;;;;;15.58;70.39;100655.47;4998908;28;20056;-42
2021/10/05 02:52:22;;;;;;;5.20;4.20;;;;;;;15.58;70.35;100656.34;4999112;28;20089;-42
2021/10/05 02:54:48;;;;;;;5.03;4.07;;;;;;;15.57;70.37;100640.44;4993717;28;20072;-44
2021/10/05 02:57:15;;;;;;;5.53;4.15;;;;;;;15.58;70.39;100644.84;4999397;28;20421;-41
2021/10/05 02:59:41;;;;;;;5.20;4.68;;;;;;;15.57;70.46;100633.31;4994921;28;20030;-44
2021/10/05 03:02:06;;;;;;;4.68;4.18;;;;;;;15.56;70.31;100628.94;4996738;28;20040;-42
2021/10/05 03:04:32;;;;;;;5.55;4.20;;;;;;;15.56;70.39;100620.97;4994259;28;20240;-41
2021/10/05 03:06:57;;;;;;;6.80;4.78;;;;;;;15.56;70.60;100614.75;4994336;28;20028;-42
2021/10/05 03:09:23;;;;;;;5.35;4.30;;;;;;;15.55;70.36;100616.56;4994866;28;20477;-41
2021/10/05 03:11:49;;;;;;;4.68;3.92;;;;;;;15.54;70.38;100617.47;4993073;28;20018;-41
2021/10/05 03:14:14;;;;;;;3.88;3.45;;;;;;;15.55;70.48;100607.72;4993326;28;20538;-42
2021/10/05 03:16:39;;;;;;;5.60;4.22;;;;;;;15.54;70.46;100598.84;4999483;28;20057;-43
2021/10/05 03:19:05;;;;;;;6.15;4.40;;;;;;;15.55;70.54;100586.44;4999777;28;20045;-41
2021/10/05 03:21:30;;;;;;;5.38;4.65;;;;;;;15.54;70.45;100584.72;4994528;28;20544;-42
2021/10/05 03:23:55;;;;;;;5.75;4.07;;;;;;;15.53;70.43;100570.53;4995915;28;20034;-42
2021/10/05 03:26:21;;;;;;;5.05;4.05;;;;;;;15.52;70.42;100575.00;4997499;28;20045;-42
2021/10/05 03:28:47;;;;;;;4.95;4.32;;;;;;;15.52;70.37;100567.03;4995024;28;20069;-41
2021/10/05 03:31:13;;;;;;;4.80;3.88;;;;;;;15.53;70.41;100559.91;4994609;28;20069;-42
2021/10/05 03:33:42;;;;;;;4.72;4.30;;;;;;;15.51;70.44;100551.13;4993814;28;20014;-43
2021/10/05 03:36:08;;;;;;;4.75;3.90;;;;;;;15.51;70.49;100541.34;4996882;28;20469;-42
2021/10/05 03:38:33;;;;;;;4.72;4.20;;;;;;;15.51;70.49;100537.84;4995314;28;20485;-41
2021/10/05 03:40:59;;;;;;;4.78;3.85;;;;;;;15.51;70.46;100537.84;4997380;28;20456;-47
2021/10/05 03:43:24;;;;;;;5.03;4.15;;;;;;;15.50;70.41;100538.75;4993243;28;20073;-43
2021/10/05 03:45:50;;;;;;;4.38;3.80;;;;;;;15.50;70.33;100541.41;4995334;28;20041;-41
2021/10/05 03:48:19;;;;;;;5.70;4.28;;;;;;;15.49;70.42;100540.56;4994466;28;20022;-41
2021/10/05 03:50:44;;;;;;;5.18;3.95;;;;;;;15.49;70.47;100535.25;4995287;28;20076;-41
2021/10/05 03:53:15;;;;;;;3.42;3.08;;;;;;;15.49;70.41;100535.25;4996202;28;20023;-44
2021/10/05 03:55:41;;;;;;;4.43;3.13;;;;;;;15.48;70.41;100532.63;4996809;28;20384;-44
2021/10/05 03:58:07;;;;;;;6.13;3.80;;;;;;;15.49;70.53;100539.69;4995876;28;20112;-42
2021/10/05 04:00:32;;;;;;;4.65;4.00;;;;;;;15.49;70.43;100523.72;4996269;28;20103;-42
2021/10/05 04:02:58;;;;;;;4.05;3.72;;;;;;;15.47;70.56;100531.75;4995987;28;20415;-47
2021/10/05 04:05:24;;;;;;;5.25;4.30;;;;;;;15.47;70.25;100530.91;4995580;28;20018;-45
2021/10/05 04:07:49;;;;;;;5.28;3.80;;;;;;;15.47;70.52;100520.25;4991456;28;20033;-43
2021/10/05 04:10:14;;;;;;;4.07;3.22;;;;;;;15.47;70.55;100517.59;4996447;28;20026;-42
2021/10/05 04:12:40;;;;;;;4.63;3.80;;;;;;;15.47;70.81;100517.59;4996421;28;20014;-42
2021/10/05 04:15:05;;;;;;;4.38;3.53;;;;;;;15.46;70.62;100508.75;4993067;28;20029;-42
2021/10/05 04:17:31;;;;;;;4.55;3.80;;;;;;;15.46;70.49;100498.13;4997372;28;20033;-41
2021/10/05 04:19:56;;;;;;;4.05;3.65;;;;;;;15.46;70.64;100492.81;4994586;28;20038;-42
2021/10/05 04:22:22;;;;;;;4.68;4.10;;;;;;;15.45;70.54;100493.72;4993132;28;20026;-41
2021/10/05 04:24:47;;;;;;;4.47;3.92;;;;;;;15.43;70.56;100484.94;4994221;28;20026;-42
2021/10/05 04:27:12;;;;;;;4.15;3.42;;;;;;;15.45;70.44;100485.75;4996207;28;20026;-42
2021/10/05 04:29:41;;;;;;;5.07;3.95;;;;;;;15.44;70.59;100477.84;4994666;28;20046;-42
2021/10/05 04:32:07;;;;;;;5.18;4.28;;;;;;;15.42;70.54;100469.03;4993541;28;20058;-46
2021/10/05 04:34:33;;;;;;;4.03;3.63;;;;;;;15.42;70.45;100461.94;4996113;28;20048;-42
2021/10/05 04:36:58;;;;;;;4.38;3.95;;;;;;;15.43;70.84;100449.50;4994321;28;20391;-42
2021/10/05 04:39:23;;;;;;;5.35;4.20;;;;;;;15.41;70.52;100441.59;4997171;28;20507;-42
2021/10/05 04:41:49;;;;;;;4.82;3.95;;;;;;;15.42;70.52;100443.34;4993412;28;20488;-42
2021/10/05 04:44:14;;;;;;;4.72;4.22;;;;;;;15.42;70.47;100435.38;4992988;28;20509;-43
2021/10/05 04:46:39;;;;;;;4.07;3.58;;;;;;;15.42;70.50;100431.84;4997007;28;20026;-42
2021/10/05 04:49:05;;;;;;;4.88;3.80;;;;;;;15.38;70.57;100409.81;4998255;28;20019;-43
2021/10/05 04:51:30;;;;;;;4.22;3.83;;;;;;;15.42;70.53;100413.22;4989716;28;20635;-41
2021/10/05 04:53:55;;;;;;;4.85;3.85;;;;;;;15.41;70.64;100415.03;4991052;28;20033;-42
2021/10/05 04:56:21;;;;;;;4.25;3.85;;;;;;;15.41;70.58;100409.72;4996219;28;20029;-42
2021/10/05 04:58:46;;;;;;;4.82;3.83;;;;;;;15.39;70.63;100400.91;4990971;28;20038;-41
2021/10/05 05:01:11;;;;;;;4.57;4.18;;;;;;;15.40;70.52;100407.97;4996042;28;20022;-43
2021/10/05 05:03:37;;;;;;;3.85;3.38;;;;;;;15.39;70.62;100407.13;4989078;28;20030;-43
2021/10/05 05:06:02;;;;;;;4.88;3.95;;;;;;;15.39;70.64;100400.91;4997958;28;20052;-42
2021/10/05 05:08:27;;;;;;;4.10;3.70;;;;;;;15.39;70.76;100408.88;4990784;28;20061;-41
2021/10/05 05:10:53;;;;;;;4.10;3.70;;;;;;;15.38;70.54;100404.50;4999492;28;20022;-42
2021/10/05 05:13:18;;;;;;;4.03;3.63;;;;;;;15.37;70.60;100408.94;4996707;28;20065;-42
2021/10/05 05:15:43;;;;;;;5.53;3.88;;;;;;;15.38;70.63;100410.66;4995285;28;20054;-43
2021/10/05 05:18:09;;;;;;;5.18;4.10;;;;;;;15.37;70.59;100397.44;4993601;28;20022;-41
2021/10/05 05:20:34;;;;;;;5.97;4.47;;;;;;;15.37;70.52;100394.78;4995411;28;20085;-43
2021/10/05 05:22:59;;;;;;;4.03;3.63;;;;;;;15.37;70.68;100395.66;4995118;28;20053;-45
2021/10/05 05:25:25;;;;;;;3.90;3.50;;;;;;;15.36;70.68;100390.38;4994314;28;20038;-43
2021/10/05 05:27:50;;;;;;;5.32;4.28;;;;;;;15.36;70.73;100393.03;4994979;28;20033;-42
2021/10/05 05:30:15;;;;;;;5.35;4.32;;;;;;;15.36;70.62;100387.72;4996452;28;20097;-44
2021/10/05 05:32:41;;;;;;;4.25;3.88;;;;;;;15.36;70.54;100393.94;4996900;28;20025;-42
2021/10/05 05:35:06;;;;;;;4.13;3.28;;;;;;;15.36;70.67;100391.28;4995950;28;20038;-41
2021/10/05 05:37:32;;;;;;;5.53;4.05;;;;;;;15.33;70.67;100386.06;5033830;22;20360;-43
2021/10/05 05:39:57;;;;;;;5.05;3.95;;;;;;;15.35;70.58;100383.34;5023026;28;20036;-43
2021/10/05 05:42:22;;;;;;;4.78;4.18;;;;;;;15.34;70.70;100386.94;5020365;28;20101;-44
2021/10/05 05:44:50;;;;;;;3.95;3.53;;;;;;;15.34;70.50;100390.44;5024029;28;20037;-44
2021/10/05 05:47:15;;;;;;;4.18;3.78;;;;;;;15.34;70.66;100392.25;5016344;28;20026;-43
2021/10/05 05:49:40;;;;;;;4.78;3.95;;;;;;;15.33;70.70;100393.13;5017867;28;20505;-44
2021/10/05 05:52:06;;;;;;;4.05;3.53;;;;;;;15.33;70.67;100390.47;5023680;28;20049;-44
2021/10/05 05:54:31;;;;;;;4.60;4.05;;;;;;;15.33;70.56;100393.13;5022224;28;20032;-44
2021/10/05 05:56:56;;;;;;;5.18;4.07;;;;;;;15.33;70.62;100382.50;5020334;28;20053;-43
2021/10/05 05:59:22;;;;;;;4.50;4.10;;;;;;;15.33;70.68;100382.50;5015911;28;20033;-44
2021/10/05 06:01:47;;;;;;;5.15;3.83;;;;;;;15.31;70.74;100368.44;5021025;28;20096;-44
2021/10/05 06:04:12;;;;;;;6.55;4.38;;;;;;;15.31;70.64;100374.59;5021499;28;20056;-44
2021/10/05 06:06:38;;;;;;;5.68;4.25;;;;;;;15.31;70.68;100376.41;5022713;28;20498;-44
2021/10/05 06:09:04;;;;;;;6.10;4.28;;;;;;;15.31;70.63;100381.72;5024585;28;20034;-43
2021/10/05 06:11:32;;;;;;;4.85;4.15;;;;;;;15.30;70.73;100388.81;5016337;28;20116;-43
2021/10/05 06:13:58;;;;;;;5.30;4.43;;;;;;;15.30;70.65;100385.28;5024807;28;20488;-44
2021/10/05 06:16:23;;;;;;;5.20;4.28;;;;;;;15.30;70.65;100374.66;5026648;28;20077;-44
2021/10/05 06:18:48;;;;;;;4.47;4.07;;;;;;;15.30;70.79;100379.97;5001569;28;20049;-44
2021/10/05 06:21:14;;;;;;;5.05;3.90;;;;;;;15.29;70.58;100372.91;5023940;28;20507;-43
2021/10/05 06:23:40;;;;;;;4.75;4.25;;;;;;;15.29;70.60;100372.91;5024575;28;20051;-44
2021/10/05 06:26:05;;;;;;;5.30;4.30;;;;;;;15.28;70.77;100372.06;5024384;28;20109;-44
2021/10/05 06:28:31;;;;;;;4.45;4.05;;;;;;;15.28;70.72;100366.75;5024944;28;20063;-45
2021/10/05 06:30:57;;;;;;;6.63;4.25;;;;;;;15.30;70.80;100361.38;5028648;28;20040;-44
2021/10/05 06:33:22;;;;;;;6.63;3.90;;;;;;;15.27;70.63;100360.56;5023509;28;20423;-44
2021/10/05 06:35:48;;;;;;;5.45;4.03;;;;;;;15.27;70.72;100349.06;5028392;28;20021;-43
2021/10/05 06:38:14;;;;;;;5.40;4.03;;;;;;;15.27;70.74;100363.22;5024275;28;20021;-42
2021/10/05 06:43:10;;;;;;;;;;;;;;;15.28;70.67;100348.16;5011431;28;20418;-44
2021/10/05 06:45:36;;;;;;;5.20;4.00;;;;;;;15.26;70.80;100342.88;5016095;28;19925;-42
2021/10/05 06:48:01;;;;;;;4.95;4.00;;;;;;;15.25;70.79;100341.13;5019553;28;20773;-44
2021/10/05 06:50:30;;;;;;;5.65;3.90;;;;;;;15.25;70.66;100343.78;5015092;28;20033;-42
2021/10/05 06:52:55;;;;;;;4.88;4.30;;;;;;;15.25;70.64;100341.13;4997575;28;20501;-43
2021/10/05 06:55:20;;;;;;;4.50;4.05;;;;;;;15.25;70.61;100340.28;4997353;28;20033;-44
2021/10/05 06:57:46;;;;;;;4.90;4.10;;;;;;;15.24;70.73;100331.44;4998116;28;20019;-44
2021/10/05 07:00:15;;;;;;;4.28;3.92;;;;;;;15.23;70.69;100319.09;5002089;28;20476;-43
2021/10/05 07:02:46;;;;;;;4.35;3.95;;;;;;;15.24;70.77;100328.78;4996612;28;20019;-43
2021/10/05 07:05:11;;;;;;;4.67;4.00;;;;;;;15.23;70.75;100327.03;4997515;28;20030;-43
2021/10/05 07:07:45;;;;;;;4.18;3.78;;;;;;;15.24;70.73;100327.94;4996245;28;20018;-43
2021/10/05 07:10:14;;;;;;;5.55;3.58;;;;;;;15.23;70.63;100316.41;4997927;28;20025;-43
2021/10/05 07:12:40;;;;;;;4.13;3.67;;;;;;;15.22;70.75;100298.75;5000964;28;20175;-43
2021/10/05 07:15:07;;;;;;;4.70;3.80;;;;;;;15.23;70.71;100296.94;4995712;28;20609;-43
2021/10/05 07:17:33;;;;;;;4.72;3.55;;;;;;;15.22;70.76;100295.22;4990150;28;20058;-44
2021/10/05 07:19:59;;;;;;;5.82;3.60;;;;;;;15.21;70.64;100299.66;4998915;28;20042;-43
2021/10/05 07:22:24;;;;;;;4.60;3.45;;;;;;;15.22;70.70;100300.53;4999749;28;20080;-44
2021/10/05 07:24:50;;;;;;;4.00;3.60;;;;;;;15.21;70.71;100291.69;5000033;28;20029;-44
2021/10/05 07:27:15;;;;;;;4.28;3.60;;;;;;;15.21;70.68;100299.66;4993312;28;20034;-44
2021/10/05 07:29:41;;;;;;;5.07;4.03;;;;;;;15.20;70.79;100284.66;4996553;28;20496;-43
2021/10/05 07:32:07;;;;;;;4.55;3.38;;;;;;;15.21;70.72;100272.25;5002642;28;20025;-43
2021/10/05 07:34:32;;;;;;;5.60;3.90;;;;;;;15.20;70.68;100279.34;4996552;28;20034;-43
2021/10/05 07:36:58;;;;;;;4.30;3.50;;;;;;;15.20;70.69;100284.66;4997282;28;20484;-43
2021/10/05 07:39:23;;;;;;;4.43;3.65;;;;;;;15.19;70.83;100276.72;4998639;28;20081;-44
2021/10/05 07:41:49;;;;;;;4.70;3.90;;;;;;;15.19;70.76;100266.97;5001501;28;20037;-43
2021/10/05 07:44:14;;;;;;;4.28;3.88;;;;;;;15.17;70.73;100260.84;4998897;28;20033;-43
2021/10/05 07:46:39;;;;;;;4.35;3.60;;;;;;;15.17;70.70;100258.19;5002417;28;20026;-43
2021/10/05 07:49:06;;;;;;;4.35;3.58;;;;;;;15.16;70.80;100248.50;4992980;28;20030;-43
2021/10/05 07:51:32;;;;;;;3.65;3.35;;;;;;;15.17;70.78;100246.72;5000539;28;20030;-44
2021/10/05 07:53:58;;;;;;;4.85;3.22;;;;;;;15.16;70.79;100245.84;5001868;28;20042;-44
2021/10/05 07:56:23;;;;;;;4.15;3.50;;;;;;;15.16;70.89;100234.31;4998974;28;20053;-43
2021/10/05 07:58:48;;;;;;;4.50;3.60;;;;;;;15.16;70.90;100235.22;5001622;28;20038;-44
2021/10/05 08:01:14;;;;;;;3.85;3.08;;;;;;;15.14;70.88;100221.97;4993819;28;20030;-42
2021/10/05 08:03:39;;;;;;;4.22;3.40;;;;;;;15.15;70.96;100217.53;5002542;28;20029;-43
2021/10/05 08:06:04;;;;;;;4.70;3.25;;;;;;;15.15;70.80;100217.53;4998939;28;20026;-43
2021/10/05 08:08:29;;;;;;;4.57;3.25;;;;;;;15.14;70.84;100207.84;4999537;28;20037;-43
2021/10/05 08:10:55;;;;;;;3.58;3.28;;;;;;;15.13;70.91;100192.81;4995904;28;20034;-43
2021/10/05 08:13:20;;;;;;;3.65;3.35;;;;;;;15.13;70.99;100192.81;4998011;28;20034;-43
2021/10/05 08:15:46;;;;;;;3.83;3.47;;;;;;;15.13;71.00;100198.13;4999350;28;20030;-43
2021/10/05 08:18:11;;;;;;;4.75;4.00;;;;;;;15.12;70.91;100191.09;4993644;28;20026;-43
2021/10/05 08:20:36;;;;;;;6.10;4.80;;;;;;;15.11;70.73;100176.94;4991852;28;20037;-43
2021/10/05 08:23:02;;;;;;;6.43;5.75;;;;;;;15.11;70.97;100187.56;4996438;28;20495;-43
2021/10/05 08:25:28;;;;;;;6.07;5.30;;;;;;;15.11;70.86;100184.06;5000224;28;20361;-43
2021/10/05 08:27:53;;;;;;;5.78;5.28;;;;;;;15.10;70.97;100183.16;4995272;28;20036;-44
2021/10/05 08:30:19;;;;;;;5.47;4.85;;;;;;;15.11;70.99;100186.72;5001626;28;20033;-44
2021/10/05 08:32:46;;;;;;;5.55;4.93;;;;;;;15.11;71.00;100181.41;5000416;28;20040;-44
2021/10/05 08:35:12;;;;;;;5.78;4.40;;;;;;;15.10;70.88;100184.94;5007051;28;20049;-43
2021/10/05 08:37:37;;;;;;;5.68;5.18;;;;;;;15.10;71.03;100188.47;4993377;28;20029;-44
2021/10/05 08:40:07;;;;;;;5.03;4.60;;;;;;;15.10;70.80;100187.59;4992586;28;20494;-43
2021/10/05 08:42:33;;;;;;;5.07;4.65;;;;;;;15.09;70.93;100188.53;5000943;28;20026;-42
2021/10/05 08:44:59;;;;;;;4.85;4.40;;;;;;;15.08;70.84;100178.84;5001651;28;20105;-43
2021/10/05 08:47:24;;;;;;;5.20;4.68;;;;;;;15.08;70.99;100174.41;4997694;28;20507;-41
2021/10/05 08:49:49;;;;;;;4.75;4.35;;;;;;;15.08;70.88;100179.72;4993370;28;20129;-43
2021/10/05 08:52:15;;;;;;;4.75;4.35;;;;;;;15.08;71.00;100182.38;4996511;28;20049;-44
2021/10/05 08:54:41;;;;;;;5.28;4.80;;;;;;;15.08;70.96;100181.50;4993524;28;20037;-43
2021/10/05 08:57:07;;;;;;;5.18;4.78;;;;;;;15.08;70.89;100186.81;4997051;28;20036;-44
2021/10/05 08:59:33;;;;;;;5.40;4.93;;;;;;;15.07;70.79;100183.28;4997959;28;20034;-44
2021/10/05 09:01:58;;;;;;;5.32;4.82;;;;;;;15.07;70.82;100185.09;4997957;28;20096;-43
2021/10/05 09:04:23;;;;;;;5.13;4.72;;;;;;;15.07;70.95;100172.66;4998075;28;20402;-44
2021/10/05 09:06:51;;;;;;;5.38;4.97;;;;;;;15.06;70.79;100173.59;4998348;28;20015;-43
2021/10/05 09:09:19;;;;;;;5.32;4.82;;;;;;;15.06;70.96;100175.34;4998318;28;20045;-43
2021/10/05 09:11:53;;;;;;;5.25;4.85;;;;;;;15.07;71.00;100177.13;4994144;28;20435;-44
2021/10/05 09:14:21;;;;;;;5.55;5.15;;;;;;;15.06;71.11;100170.94;4998122;28;20500;-43
2021/10/05 09:16:47;;;;;;;5.68;5.22;;;;;;;15.06;70.97;100180.66;5003750;28;20022;-44
2021/10/05 09:19:17;;;;;;;5.75;5.35;;;;;;;15.05;70.94;100171.84;4996216;28;20058;-44
2021/10/05 09:21:48;;;;;;;6.75;6.25;;;;;;;15.05;71.02;100174.50;4997672;28;20099;-44
2021/10/05 09:24:22;;;;;;;6.85;6.35;;;;;;;15.04;70.98;100170.09;4992982;28;20134;-44
2021/10/05 09:26:59;;;;;;;6.45;5.95;;;;;;;15.05;71.02;100173.63;4999657;28;20049;-44
2021/10/05 09:29:28;;;;;;;7.63;7.03;;;;;;;15.04;70.94;100169.25;4998732;28;20034;-43
2021/10/05 09:31:55;;;;;;;8.38;7.68;;;;;;;15.04;70.98;100174.56;4994425;28;20029;-44
2021/10/05 09:34:40;;;;;;;7.82;7.20;;;;;;;15.04;70.93;100164.78;4994173;28;20053;-43
2021/10/05 09:37:09;;;;;;;8.43;7.75;;;;;;;15.03;71.04;100165.72;5005605;23;20029;-41
2021/10/05 09:39:43;;;;;;;8.98;8.27;;;;;;;15.03;71.07;100162.22;5020903;28;20026;-41
2021/10/05 09:42:09;;;;;;;9.38;8.68;;;;;;;15.00;71.05;100156.09;5029757;28;20022;-41
2021/10/05 09:44:35;;;;;;;9.02;8.30;;;;;;;15.01;71.00;100152.50;5018968;28;20036;-41
2021/10/05 09:47:01;;;;;;;9.40;8.68;;;;;;;15.01;70.96;100157.81;5021421;28;20391;-42
2021/10/05 09:49:40;;;;;;;10.15;9.25;;;;;;;15.00;71.03;100161.41;5000956;28;20036;-46
2021/10/05 09:52:09;;;;;;;10.50;9.43;;;;;;;15.00;70.92;100161.41;4997226;28;20025;-40
2021/10/05 09:54:34;;;;;;;10.05;9.15;;;;;;;15.00;71.05;100160.50;5012784;28;20483;-40
2021/10/05 09:56:59;;;;;;;10.85;9.85;;;;;;;15.00;71.13;100165.81;5020760;28;20037;-42
2021/10/05 09:59:28;;;;;;;10.68;9.68;;;;;;;14.99;71.04;100164.97;5022693;28;20030;-41
2021/10/05 10:01:55;;;;;;;10.02;9.20;;;;;;;14.99;70.99;100153.47;5013581;28;20021;-41
2021/10/05 10:04:25;;;;;;;10.05;9.15;;;;;;;14.99;71.06;100153.47;5003414;28;20117;-41
2021/10/05 10:06:53;;;;;;;10.10;9.20;;;;;;;14.98;71.07;100157.91;5019220;28;20092;-42
2021/10/05 10:09:18;;;;;;;10.00;9.10;;;;;;;14.99;71.28;100148.16;5006361;28;20411;-41
2021/10/05 10:11:44;;;;;;;9.65;8.73;;;;;;;14.98;71.08;100147.28;5014916;28;20084;-41
2021/10/05 10:14:10;;;;;;;10.05;9.15;;;;;;;14.98;71.06;100143.78;5021256;28;20124;-41
2021/10/05 10:16:39;;;;;;;9.25;8.45;;;;;;;14.98;71.03;100146.44;4999470;28;20060;-40
2021/10/05 10:19:05;;;;;;;9.63;8.82;;;;;;;14.97;71.05;100145.56;5014862;28;20037;-41
2021/10/05 10:21:37;;;;;;;9.88;8.98;;;;;;;14.97;71.03;100150.88;5014518;28;20018;-40
2021/10/05 10:24:14;;;;;;;8.60;7.90;;;;;;;14.96;71.27;100143.84;5017372;28;20546;-41
2021/10/05 10:27:02;;;;;;;10.25;9.35;;;;;;;14.96;71.06;100133.22;5019652;28;20446;-41
2021/10/05 10:29:30;;;;;;;9.82;8.93;;;;;;;14.96;71.07;100127.91;5017813;28;20065;-42
2021/10/05 10:31:56;;;;;;;9.85;9.05;;;;;;;14.95;71.21;100131.50;5019010;28;20430;-43
2021/10/05 10:34:22;;;;;;;10.15;9.32;;;;;;;14.96;71.16;100127.03;5021336;28;20045;-41
2021/10/05 10:36:49;;;;;;;10.32;9.43;;;;;;;14.94;71.11;100121.78;5018462;28;20407;-42
2021/10/05 10:39:17;;;;;;;10.98;9.93;;;;;;;14.95;71.16;100123.53;5020817;28;20512;-41
2021/10/05 10:41:51;;;;;;;11.18;10.27;;;;;;;14.94;70.94;100119.13;5019986;28;20021;-40
2021/10/05 10:44:20;;;;;;;10.18;9.23;;;;;;;14.94;71.13;100121.78;5015782;28;20475;-42
2021/10/05 10:46:46;;;;;;;11.05;10.07;;;;;;;14.93;71.13;100116.50;5018131;28;20033;-41
2021/10/05 10:49:15;;;;;;;11.23;10.20;;;;;;;14.93;71.20;100120.03;5011786;28;20555;-41
2021/10/05 10:51:45;;;;;;;12.02;11.00;;;;;;;14.92;71.17;100118.31;5017270;28;20021;-41
2021/10/05 10:54:19;;;;;;;11.73;10.73;;;;;;;14.94;71.17;100124.44;5021358;28;20021;-42
2021/10/05 10:56:46;;;;;;;11.27;10.38;;;;;;;14.92;71.23;100115.66;5012313;28;20028;-41
2021/10/05 10:59:18;;;;;;;11.52;10.43;;;;;;;14.93;71.16;100117.41;5015460;28;20044;-42
2021/10/05 11:01:46;;;;;;;12.07;11.00;;;;;;;14.94;71.20;100131.53;5012741;28;20034;-41
2021/10/05 11:04:17;;;;;;;13.23;12.02;;;;;;;14.93;71.11;100119.16;5022334;28;20036;-41
2021/10/05 11:06:51;;;;;;;12.85;11.75;;;;;;;14.93;71.20;100127.13;5020136;28;20117;-41
2021/10/05 11:09:17;;;;;;;13.25;12.07;;;;;;;14.92;71.22;100125.41;5011565;28;20376;-43
2021/10/05 11:11:45;;;;;;;12.93;11.73;;;;;;;14.92;71.21;100126.28;5011991;28;20486;-41
2021/10/05 11:14:14;;;;;;;12.82;11.65;;;;;;;14.91;71.12;100121.91;5013213;28;20039;-41
2021/10/05 11:16:41;;;;;;;12.85;11.65;;;;;;;14.90;71.14;100106.03;5015272;28;20067;-41
2021/10/05 11:19:13;;;;;;;12.82;11.73;;;;;;;14.91;71.24;100113.94;5015761;28;20022;-41
2021/10/05 11:21:40;;;;;;;10.93;10.02;;;;;;;14.91;71.25;100108.63;5021716;28;20450;-41
2021/10/05 11:24:05;;;;;;;10.98;10.05;;;;;;;14.90;71.26;100108.69;5018695;28;20048;-41